Time;durP1;ratioP1;P1;durP2;ratioP2;P2;SDS_P1;SDS_P2;PMS_P1;PMS_P2;Temp;Humidity;BMP_temperature;BMP_pressure;BME280_temperature;BME280_humidity;BME280_pressure;Samples;Min_cycle;Max_cycle;Signal;HPM_P1;HPM_P2
2021/05/09 00:01:46;;;;;;;1.40;1.00;;;15.60;99.40;;;;;;5012298;28;20474;-79
2021/05/09 00:04:13;;;;;;;1.83;0.90;;;15.60;99.20;;;;;;5019073;28;20494;-77
2021/05/09 00:06:41;;;;;;;0.90;0.90;;;15.60;99.90;;;;;;5020978;28;20511;-79
2021/05/09 00:09:08;;;;;;;1.40;1.00;;;15.60;99.90;;;;;;5021771;28;20468;-77
2021/05/09 00:11:35;;;;;;;1.10;1.00;;;15.60;99.90;;;;;;5022053;28;20493;-79
2021/05/09 00:14:04;;;;;;;1.30;1.20;;;15.70;99.90;;;;;;5019760;28;20479;-76
2021/05/09 00:16:32;;;;;;;1.07;1.00;;;15.60;99.90;;;;;;5021139;28;20479;-78
2021/05/09 00:18:59;;;;;;;1.30;1.10;;;15.50;99.90;;;;;;5018555;28;20491;-77
2021/05/09 00:21:26;;;;;;;1.13;0.90;;;15.50;99.90;;;;;;5020084;28;20520;-80
2021/05/09 00:23:54;;;;;;;1.67;1.30;;;15.40;99.90;;;;;;5019997;28;20825;-80
2021/05/09 00:26:21;;;;;;;1.60;1.30;;;15.40;99.90;;;;;;5019772;28;20468;-79
2021/05/09 00:28:48;;;;;;;8.23;1.60;;;15.40;99.90;;;;;;5021204;28;20454;-76
2021/05/09 00:31:16;;;;;;;1.00;1.00;;;15.30;99.90;;;;;;5042524;28;20473;-80
2021/05/09 00:33:43;;;;;;;1.13;1.03;;;15.30;99.90;;;;;;5019294;28;20470;-74
2021/05/09 00:36:10;;;;;;;1.00;1.00;;;15.30;99.90;;;;;;5018768;28;20459;-78
2021/05/09 00:38:38;;;;;;;1.17;1.10;;;15.30;99.90;;;;;;5018709;28;20488;-77
2021/05/09 00:41:05;;;;;;;0.97;0.83;;;15.30;99.90;;;;;;5019670;28;20540;-76
2021/05/09 00:43:32;;;;;;;0.80;0.80;;;15.40;99.90;;;;;;5019151;28;20984;-78
2021/05/09 00:45:59;;;;;;;2.60;0.93;;;15.40;99.90;;;;;;5014215;28;20469;-77
2021/05/09 00:48:27;;;;;;;1.20;1.10;;;15.40;99.90;;;;;;5018958;28;20475;-77
2021/05/09 00:50:54;;;;;;;0.70;0.70;;;15.40;99.90;;;;;;5014795;28;20484;-78
2021/05/09 00:53:25;;;;;;;0.90;0.90;;;15.40;99.90;;;;;;5019667;28;20827;-75
2021/05/09 00:55:53;;;;;;;0.80;0.80;;;15.50;99.90;;;;;;5012943;28;20451;-77
2021/05/09 00:58:22;;;;;;;1.07;1.00;;;15.50;99.90;;;;;;5014286;28;20484;-76
2021/05/09 01:00:51;;;;;;;1.50;1.00;;;15.50;99.90;;;;;;5027303;28;20512;-80
2021/05/09 01:03:21;;;;;;;1.33;0.90;;;15.50;99.90;;;;;;5018174;28;20463;-80
2021/05/09 01:05:49;;;;;;;1.10;1.00;;;15.50;99.90;;;;;;5024315;28;20456;-78
2021/05/09 01:08:16;;;;;;;1.57;0.87;;;15.40;99.90;;;;;;5025435;28;20530;-77
2021/05/09 01:10:43;;;;;;;0.90;0.90;;;15.40;99.90;;;;;;5019155;28;20488;-79
2021/05/09 01:13:10;;;;;;;1.17;1.07;;;15.40;99.90;;;;;;5025606;28;20524;-79
2021/05/09 01:15:38;;;;;;;0.83;0.80;;;15.30;99.90;;;;;;5016762;28;20461;-76
2021/05/09 01:18:05;;;;;;;0.90;0.90;;;15.20;99.90;;;;;;5034134;28;20481;-79
2021/05/09 01:20:37;;;;;;;1.10;1.00;;;15.20;99.90;;;;;;5019665;28;20598;-80
2021/05/09 01:23:05;;;;;;;2.53;0.93;;;15.20;99.90;;;;;;5015500;28;20539;-77
2021/05/09 01:25:33;;;;;;;1.43;1.17;;;15.20;99.90;;;;;;5019347;28;20465;-78
2021/05/09 01:28:00;;;;;;;1.00;1.00;;;15.10;99.90;;;;;;5016679;28;20467;-77
2021/05/09 01:30:28;;;;;;;1.70;1.20;;;15.00;99.90;;;;;;5022378;28;20475;-76
2021/05/09 01:32:55;;;;;;;0.87;0.87;;;15.00;99.90;;;;;;5016569;28;20466;-77
2021/05/09 01:35:23;;;;;;;1.10;0.90;;;14.90;99.90;;;;;;5021287;28;20466;-80
2021/05/09 01:37:51;;;;;;;1.00;1.00;;;14.90;99.90;;;;;;5036199;28;20532;-76
2021/05/09 01:40:18;;;;;;;0.97;0.93;;;14.90;99.90;;;;;;5020829;28;20872;-78
2021/05/09 01:42:46;;;;;;;1.13;1.00;;;14.90;99.90;;;;;;5021552;28;20470;-77
2021/05/09 01:45:13;;;;;;;3.83;0.97;;;15.00;99.90;;;;;;5018917;28;20526;-76
2021/05/09 01:47:40;;;;;;;1.00;0.90;;;14.90;99.90;;;;;;5015191;28;20835;-75
2021/05/09 01:50:10;;;;;;;1.90;1.10;;;14.90;99.90;;;;;;5020994;28;20493;-77
2021/05/09 01:52:37;;;;;;;1.10;1.00;;;15.00;99.90;;;;;;5014291;28;20463;-75
2021/05/09 01:55:08;;;;;;;1.40;1.30;;;14.90;99.90;;;;;;5017442;28;20532;-76
2021/05/09 01:57:35;;;;;;;0.90;0.90;;;14.90;99.90;;;;;;5035285;28;20479;-78
2021/05/09 02:00:09;;;;;;;0.90;0.90;;;14.90;99.90;;;;;;5019244;28;20560;-78
2021/05/09 02:02:36;;;;;;;1.13;0.97;;;14.80;99.90;;;;;;5018690;28;20460;-76
2021/05/09 02:05:05;;;;;;;1.43;1.10;;;14.80;99.90;;;;;;5033428;28;20460;-79
2021/05/09 02:07:32;;;;;;;0.87;0.87;;;14.80;99.90;;;;;;5019202;28;20459;-78
2021/05/09 02:09:59;;;;;;;1.10;1.00;;;14.80;99.90;;;;;;5020906;28;20483;-77
2021/05/09 02:12:27;;;;;;;1.00;0.90;;;14.90;99.90;;;;;;5019948;28;20588;-77
2021/05/09 02:14:55;;;;;;;1.00;1.00;;;14.90;99.90;;;;;;5016449;28;20496;-77
2021/05/09 02:17:23;;;;;;;2.43;1.00;;;15.00;99.90;;;;;;5013187;28;20488;-80
2021/05/09 02:19:50;;;;;;;2.60;0.97;;;15.00;99.90;;;;;;5021367;28;20460;-79
2021/05/09 02:22:17;;;;;;;1.23;0.80;;;15.10;99.90;;;;;;5020910;28;20946;-74
2021/05/09 02:24:45;;;;;;;1.20;1.20;;;15.20;99.90;;;;;;5021388;28;20515;-79
2021/05/09 02:27:13;;;;;;;2.83;0.90;;;15.10;99.90;;;;;;5019006;28;20471;-75
2021/05/09 02:29:41;;;;;;;0.97;0.97;;;15.00;99.90;;;;;;5017732;28;20464;-75
2021/05/09 02:32:08;;;;;;;1.87;1.20;;;15.10;99.90;;;;;;5010899;28;20465;-75
2021/05/09 02:34:36;;;;;;;1.73;1.07;;;15.00;99.90;;;;;;5021758;28;20491;-77
2021/05/09 02:37:04;;;;;;;2.03;1.10;;;15.10;99.90;;;;;;5022570;28;20513;-80
2021/05/09 02:39:31;;;;;;;1.10;1.00;;;15.00;99.90;;;;;;5022599;28;20545;-77
2021/05/09 02:41:58;;;;;;;1.10;0.90;;;15.00;99.90;;;;;;5021603;28;20488;-74
2021/05/09 02:44:26;;;;;;;1.20;0.90;;;15.10;99.90;;;;;;5016792;28;21325;-77
2021/05/09 02:46:54;;;;;;;1.43;1.10;;;15.10;99.90;;;;;;5020911;28;21031;-79
2021/05/09 02:49:21;;;;;;;1.27;0.97;;;15.00;99.90;;;;;;5022304;28;20562;-78
2021/05/09 02:51:48;;;;;;;0.93;0.93;;;15.00;99.90;;;;;;5015580;28;21070;-74
2021/05/09 02:54:15;;;;;;;1.10;1.00;;;15.00;99.90;;;;;;5022409;28;21098;-76
2021/05/09 02:56:43;;;;;;;1.10;1.00;;;15.10;99.90;;;;;;5018815;28;20476;-77
2021/05/09 02:59:10;;;;;;;1.07;0.90;;;15.10;99.90;;;;;;5017921;28;20532;-78
2021/05/09 03:01:37;;;;;;;1.00;0.90;;;15.00;99.90;;;;;;5018876;28;20543;-75
2021/05/09 03:04:06;;;;;;;1.63;0.90;;;14.90;99.90;;;;;;5028276;28;20972;-75
2021/05/09 03:06:33;;;;;;;1.13;1.03;;;15.00;99.90;;;;;;5020962;28;20526;-76
2021/05/09 03:09:00;;;;;;;1.00;0.90;;;14.90;99.90;;;;;;5014840;28;20877;-77
2021/05/09 03:11:28;;;;;;;1.53;1.00;;;15.00;99.90;;;;;;5024373;28;20901;-76
2021/05/09 03:13:56;;;;;;;1.10;1.00;;;14.90;99.90;;;;;;5020214;28;20579;-78
2021/05/09 03:16:24;;;;;;;1.20;1.10;;;14.90;99.90;;;;;;5012653;28;20537;-76
2021/05/09 03:18:51;;;;;;;1.13;1.00;;;14.90;99.90;;;;;;5021688;28;20558;-78
2021/05/09 03:21:21;;;;;;;1.30;1.20;;;14.80;99.90;;;;;;5017940;28;20484;-78
2021/05/09 03:23:49;;;;;;;1.10;1.00;;;14.80;99.90;;;;;;5022214;28;20465;-76
2021/05/09 03:26:16;;;;;;;1.70;0.90;;;14.90;99.90;;;;;;5015399;28;20461;-75
2021/05/09 03:28:43;;;;;;;1.23;0.90;;;14.90;99.90;;;;;;5016037;28;20461;-78
2021/05/09 03:31:10;;;;;;;1.00;0.80;;;15.00;99.90;;;;;;5033563;28;20485;-78
2021/05/09 03:33:37;;;;;;;1.03;0.93;;;15.00;99.90;;;;;;5018117;28;20449;-76
2021/05/09 03:36:05;;;;;;;1.30;1.20;;;15.00;99.90;;;;;;5015218;28;20843;-79
2021/05/09 03:38:33;;;;;;;3.03;1.43;;;14.90;99.90;;;;;;5021253;28;20472;-75
2021/05/09 03:41:00;;;;;;;1.00;1.00;;;14.90;99.90;;;;;;5024594;28;20477;-76
2021/05/09 03:43:28;;;;;;;2.80;1.83;;;14.90;99.90;;;;;;5021491;28;20460;-75
2021/05/09 03:45:55;;;;;;;2.03;1.30;;;15.00;99.90;;;;;;5024487;28;20472;-80
2021/05/09 03:48:22;;;;;;;1.07;0.97;;;15.00;99.90;;;;;;5020996;28;20459;-76
2021/05/09 03:50:49;;;;;;;1.10;1.00;;;14.90;99.90;;;;;;5020930;28;20482;-77
2021/05/09 03:53:17;;;;;;;1.13;1.03;;;14.90;99.90;;;;;;5023182;28;20507;-76
2021/05/09 03:55:45;;;;;;;1.17;1.10;;;15.00;99.90;;;;;;5023156;28;20829;-79
2021/05/09 03:58:12;;;;;;;1.20;1.00;;;15.00;99.90;;;;;;5020844;28;20472;-78
2021/05/09 04:00:39;;;;;;;1.10;1.00;;;15.00;99.90;;;;;;5019639;28;20480;-78
2021/05/09 04:03:19;;;;;;;1.03;1.00;;;15.00;99.90;;;;;;5028646;28;20463;-76
2021/05/09 04:05:47;;;;;;;1.13;1.00;;;15.00;99.90;;;;;;5006726;28;20442;-77
2021/05/09 04:08:14;;;;;;;1.00;1.00;;;15.00;99.90;;;;;;5026970;28;20465;-77
2021/05/09 04:10:41;;;;;;;1.00;0.90;;;15.00;99.90;;;;;;5022869;28;20556;-78
2021/05/09 04:13:09;;;;;;;1.93;1.20;;;15.00;99.90;;;;;;5022526;28;20472;-77
2021/05/09 04:15:36;;;;;;;1.07;1.00;;;15.00;99.90;;;;;;5009625;28;20845;-76
2021/05/09 04:18:04;;;;;;;0.97;0.97;;;14.90;99.90;;;;;;5017630;28;20542;-78
2021/05/09 04:20:31;;;;;;;1.20;1.10;;;15.00;99.90;;;;;;5022260;28;20512;-77
2021/05/09 04:23:09;;;;;;;1.10;1.00;;;15.00;99.90;;;;;;5031491;28;20467;-77
2021/05/09 04:25:36;;;;;;;1.90;1.20;;;15.00;99.90;;;;;;5046248;28;20520;-77
2021/05/09 04:28:04;;;;;;;1.15;1.05;;;15.00;99.90;;;;;;5019312;28;20437;-77
2021/05/09 04:30:32;;;;;;;1.93;1.20;;;15.00;99.90;;;;;;5013041;28;20467;-81
2021/05/09 04:33:00;;;;;;;3.03;1.87;;;15.10;99.90;;;;;;5014153;28;20452;-76
2021/05/09 04:35:28;;;;;;;0.87;0.87;;;15.10;99.90;;;;;;5021705;28;20845;-76
2021/05/09 04:37:55;;;;;;;1.30;1.20;;;15.10;99.90;;;;;;5023172;28;20466;-77
2021/05/09 04:40:22;;;;;;;4.00;1.30;;;15.10;99.90;;;;;;5027968;28;20473;-77
2021/05/09 04:42:49;;;;;;;1.30;1.10;;;14.90;99.90;;;;;;5019590;28;20465;-78
2021/05/09 04:45:17;;;;;;;1.20;1.10;;;14.90;99.90;;;;;;5021668;28;20469;-78
2021/05/09 04:47:45;;;;;;;1.17;1.07;;;14.90;99.90;;;;;;5021002;28;21164;-76
2021/05/09 04:50:13;;;;;;;0.90;0.90;;;14.90;99.90;;;;;;5018357;28;20503;-77
2021/05/09 04:52:41;;;;;;;1.23;1.13;;;14.80;99.90;;;;;;5020961;28;20475;-76
2021/05/09 04:55:09;;;;;;;1.70;1.10;;;14.90;99.90;;;;;;5022345;28;20468;-78
2021/05/09 04:57:36;;;;;;;0.90;0.90;;;14.80;99.90;;;;;;5020601;28;20550;-78
2021/05/09 05:00:07;;;;;;;1.63;1.40;;;14.80;99.90;;;;;;5019653;28;20491;-79
2021/05/09 05:02:34;;;;;;;1.17;1.00;;;14.90;99.90;;;;;;5023530;28;20452;-76
2021/05/09 05:05:04;;;;;;;1.10;0.70;;;14.90;99.90;;;;;;5024542;28;20467;-79
2021/05/09 05:07:31;;;;;;;1.37;1.00;;;14.90;99.90;;;;;;5026131;28;20488;-78
2021/05/09 05:09:58;;;;;;;1.03;0.97;;;15.00;99.90;;;;;;5021535;28;21032;-78
2021/05/09 05:12:25;;;;;;;1.23;0.80;;;15.00;99.90;;;;;;5026990;28;20457;-76
2021/05/09 05:14:53;;;;;;;2.03;1.10;;;15.00;99.90;;;;;;5031201;28;20460;-77
2021/05/09 05:17:20;;;;;;;1.10;0.90;;;15.00;99.90;;;;;;5037545;28;20519;-78
2021/05/09 05:19:47;;;;;;;0.90;0.90;;;15.00;99.90;;;;;;5023978;28;20469;-79
2021/05/09 05:22:15;;;;;;;2.50;1.03;;;15.00;99.90;;;;;;5018751;28;20466;-77
2021/05/09 05:24:42;;;;;;;1.10;1.00;;;15.00;99.90;;;;;;5026464;28;20463;-77
2021/05/09 05:27:09;;;;;;;0.80;0.80;;;15.10;99.90;;;;;;5024466;28;20490;-78
2021/05/09 05:29:36;;;;;;;0.90;0.90;;;15.10;99.90;;;;;;5016271;28;20458;-77
2021/05/09 05:32:04;;;;;;;1.13;1.10;;;15.20;99.90;;;;;;5019728;28;20463;-77
2021/05/09 05:34:31;;;;;;;1.10;0.90;;;15.30;99.90;;;;;;5034972;28;20461;-80
2021/05/09 05:36:58;;;;;;;1.07;1.00;;;15.30;99.90;;;;;;5013595;28;20549;-76
2021/05/09 05:39:26;;;;;;;0.97;0.90;;;15.30;99.90;;;;;;5022987;28;20543;-80
2021/05/09 05:41:56;;;;;;;1.40;1.00;;;15.30;99.90;;;;;;5008633;28;20492;-80
2021/05/09 05:44:23;;;;;;;1.42;1.10;;;15.40;99.90;;;;;;5017382;28;20449;-76
2021/05/09 05:46:50;;;;;;;1.33;0.83;;;15.50;99.90;;;;;;5019479;28;20732;-77
2021/05/09 05:49:17;;;;;;;0.90;0.90;;;15.60;99.90;;;;;;5013166;28;20535;-77
2021/05/09 05:51:44;;;;;;;2.00;1.00;;;15.60;99.90;;;;;;5014383;28;20511;-75
2021/05/09 05:54:12;;;;;;;1.70;1.60;;;15.60;99.90;;;;;;5017068;28;21426;-74
2021/05/09 05:56:40;;;;;;;0.77;0.77;;;15.70;99.90;;;;;;5011684;28;20465;-76
2021/05/09 05:59:07;;;;;;;1.27;1.17;;;15.70;99.90;;;;;;5013696;28;20479;-76
2021/05/09 06:01:35;;;;;;;1.10;0.80;;;15.80;99.90;;;;;;5015429;28;20476;-76
2021/05/09 06:04:02;;;;;;;0.90;0.73;;;15.80;99.90;;;;;;5016840;28;20471;-76
2021/05/09 06:06:29;;;;;;;0.90;0.90;;;15.80;99.90;;;;;;5016723;28;20450;-76
2021/05/09 06:08:57;;;;;;;1.03;0.93;;;15.90;99.90;;;;;;5018475;28;20534;-76
2021/05/09 06:11:24;;;;;;;0.90;0.90;;;15.90;99.90;;;;;;5014988;28;20487;-73
2021/05/09 06:13:52;;;;;;;1.23;1.13;;;16.00;99.90;;;;;;5020370;28;20467;-78
2021/05/09 06:16:19;;;;;;;1.83;1.00;;;16.10;99.90;;;;;;5014519;28;20509;-75
2021/05/09 06:18:46;;;;;;;0.97;0.90;;;16.10;99.90;;;;;;5014524;28;20484;-77
2021/05/09 06:21:14;;;;;;;1.37;1.27;;;16.10;99.90;;;;;;5011816;28;21494;-74
2021/05/09 06:23:41;;;;;;;1.10;1.00;;;16.10;99.90;;;;;;5016749;28;20559;-75
2021/05/09 06:26:08;;;;;;;1.33;1.20;;;16.30;99.90;;;;;;5014905;28;21177;-76
2021/05/09 06:28:36;;;;;;;0.70;0.70;;;16.20;99.90;;;;;;5015263;28;20445;-75
2021/05/09 06:31:04;;;;;;;1.20;1.10;;;16.40;99.90;;;;;;5012349;28;20449;-76
2021/05/09 06:33:31;;;;;;;0.70;0.70;;;16.60;99.90;;;;;;5016561;28;20208;-77
2021/05/09 06:35:58;;;;;;;1.40;1.10;;;16.70;99.90;;;;;;5010432;28;20460;-77
2021/05/09 06:38:25;;;;;;;0.93;0.93;;;16.90;99.90;;;;;;5015640;28;20236;-77
2021/05/09 06:40:52;;;;;;;1.40;1.00;;;17.20;99.90;;;;;;5013171;28;20572;-76
2021/05/09 06:43:21;;;;;;;3.47;0.90;;;17.50;99.90;;;;;;5011527;28;20456;-77
2021/05/09 06:45:50;;;;;;;2.80;0.87;;;17.80;99.90;;;;;;5014120;28;20464;-77
2021/05/09 06:48:18;;;;;;;1.10;1.00;;;18.00;99.90;;;;;;5014776;28;20516;-77
2021/05/09 06:50:45;;;;;;;2.37;1.23;;;18.30;99.90;;;;;;5015080;28;21020;-77
2021/05/09 06:53:12;;;;;;;0.70;0.70;;;18.40;99.90;;;;;;5016679;28;20694;-75
2021/05/09 06:55:39;;;;;;;0.90;0.80;;;18.60;99.90;;;;;;5017991;28;20457;-76
2021/05/09 06:58:09;;;;;;;0.80;0.80;;;19.00;99.90;;;;;;5012751;28;20453;-76
2021/05/09 07:00:36;;;;;;;1.00;0.90;;;19.10;99.90;;;;;;5013471;28;20472;-76
2021/05/09 07:03:03;;;;;;;0.90;0.70;;;19.30;99.90;;;;;;5047842;28;20461;-75
2021/05/09 07:05:31;;;;;;;0.87;0.87;;;19.50;99.90;;;;;;5012030;28;20471;-76
2021/05/09 07:07:58;;;;;;;2.10;0.80;;;19.50;99.90;;;;;;5016071;28;20468;-76
2021/05/09 07:10:27;;;;;;;0.93;0.90;;;19.70;99.90;;;;;;5016655;28;20476;-76
2021/05/09 07:12:55;;;;;;;0.80;0.80;;;20.20;99.90;;;;;;5015843;28;20453;-75
2021/05/09 07:15:26;;;;;;;1.23;0.83;;;20.20;99.90;;;;;;5015053;28;20464;-75
2021/05/09 07:17:56;;;;;;;2.23;1.30;;;20.40;99.90;;;;;;5015689;28;21167;-74
2021/05/09 07:20:23;;;;;;;1.20;0.90;;;20.30;99.90;;;;;;5015935;28;21069;-77
2021/05/09 07:22:54;;;;;;;0.87;0.87;;;20.70;99.90;;;;;;5014983;28;20575;-76
2021/05/09 07:25:22;;;;;;;0.70;0.70;;;20.60;99.90;;;;;;5013242;28;20471;-77
2021/05/09 07:27:49;;;;;;;1.60;1.50;;;20.80;99.90;;;;;;5016989;28;20970;-77
2021/05/09 07:30:16;;;;;;;0.93;0.90;;;20.80;99.90;;;;;;5013040;28;21046;-76
2021/05/09 07:32:44;;;;;;;1.00;0.80;;;20.70;99.90;;;;;;5013440;28;20461;-75
2021/05/09 07:35:11;;;;;;;0.70;0.70;;;20.70;99.90;;;;;;5014136;28;20495;-78
2021/05/09 07:37:38;;;;;;;1.37;1.10;;;20.50;99.90;;;;;;5010450;28;20518;-76
2021/05/09 07:40:08;;;;;;;0.80;0.80;;;20.50;99.90;;;;;;5013446;28;20554;-75
2021/05/09 07:42:35;;;;;;;1.67;0.80;;;20.60;99.90;;;;;;5010177;28;20461;-75
2021/05/09 07:45:14;;;;;;;0.80;0.80;;;20.50;99.90;;;;;;5018399;28;21049;-76
2021/05/09 07:47:41;;;;;;;0.70;0.70;;;20.30;99.90;;;;;;5017790;28;20539;-75
2021/05/09 07:50:09;;;;;;;0.80;0.70;;;20.60;99.30;;;;;;5020393;28;20862;-76
2021/05/09 07:52:37;;;;;;;1.20;0.60;;;20.60;97.60;;;;;;5016818;28;20479;-74
2021/05/09 07:55:07;;;;;;;0.87;0.83;;;20.50;98.50;;;;;;5027400;28;20445;-74
2021/05/09 07:57:34;;;;;;;1.47;0.80;;;20.60;99.90;;;;;;5002076;28;20445;-77
2021/05/09 08:00:01;;;;;;;0.60;0.60;;;20.70;99.00;;;;;;5011109;28;20481;-78
2021/05/09 08:02:28;;;;;;;0.80;0.80;;;20.70;98.00;;;;;;5010537;28;20465;-75
2021/05/09 08:04:56;;;;;;;1.20;0.80;;;20.70;99.60;;;;;;5020423;28;20491;-76
2021/05/09 08:07:23;;;;;;;1.20;0.90;;;20.70;98.60;;;;;;5019946;28;20464;-74
2021/05/09 08:09:51;;;;;;;0.90;0.67;;;20.70;99.70;;;;;;5020316;28;20456;-75
2021/05/09 08:12:19;;;;;;;1.27;1.17;;;20.70;99.40;;;;;;5012501;28;20472;-74
2021/05/09 08:14:48;;;;;;;0.70;0.70;;;20.70;99.60;;;;;;5016014;28;21133;-76
2021/05/09 08:17:15;;;;;;;0.60;0.60;;;20.80;98.80;;;;;;5008263;28;20463;-78
2021/05/09 08:19:43;;;;;;;0.70;0.70;;;20.80;98.80;;;;;;5015301;28;20478;-75
2021/05/09 08:22:10;;;;;;;1.03;0.70;;;20.80;98.90;;;;;;5015215;28;20507;-75
2021/05/09 08:24:37;;;;;;;1.40;1.10;;;20.90;99.70;;;;;;5010737;28;20453;-77
2021/05/09 08:27:05;;;;;;;0.80;0.80;;;20.90;99.90;;;;;;5013299;28;20583;-77
2021/05/09 08:29:33;;;;;;;1.00;0.90;;;21.00;99.90;;;;;;5018543;28;20548;-79
2021/05/09 08:32:01;;;;;;;0.70;0.70;;;21.00;99.90;;;;;;5018777;28;20508;-78
2021/05/09 08:34:28;;;;;;;0.80;0.80;;;21.10;99.90;;;;;;5019820;28;20478;-75
2021/05/09 08:36:55;;;;;;;1.10;0.80;;;21.10;99.90;;;;;;5011903;28;20639;-75
2021/05/09 08:39:22;;;;;;;0.80;0.80;;;21.20;99.90;;;;;;5019801;28;20496;-75
2021/05/09 08:41:50;;;;;;;0.73;0.73;;;21.20;99.70;;;;;;5016055;28;20477;-74
2021/05/09 08:44:17;;;;;;;1.13;0.90;;;21.30;98.70;;;;;;5020019;28;20453;-76
2021/05/09 08:46:47;;;;;;;1.10;0.80;;;21.40;97.90;;;;;;5011532;28;20462;-77
2021/05/09 08:49:15;;;;;;;0.80;0.70;;;21.40;97.70;;;;;;5020736;28;20440;-77
2021/05/09 08:51:43;;;;;;;0.77;0.77;;;21.50;98.30;;;;;;5019708;28;20460;-76
2021/05/09 08:54:10;;;;;;;0.77;0.77;;;21.60;96.60;;;;;;5020062;28;20465;-75
2021/05/09 08:56:38;;;;;;;0.87;0.87;;;21.60;96.90;;;;;;5016516;28;20458;-74
2021/05/09 08:59:06;;;;;;;2.10;1.00;;;21.60;98.30;;;;;;5014072;28;20476;-74
2021/05/09 09:01:39;;;;;;;0.80;0.80;;;21.70;97.80;;;;;;5016240;28;20498;-77
2021/05/09 09:04:07;;;;;;;1.27;0.83;;;21.80;95.60;;;;;;5005105;28;20451;-76
2021/05/09 09:06:42;;;;;;;1.47;0.77;;;21.80;97.50;;;;;;5019678;28;20478;-76
2021/05/09 09:09:19;;;;;;;1.03;0.70;;;21.90;96.20;;;;;;5012726;28;20472;-76
2021/05/09 09:11:54;;;;;;;0.80;0.80;;;21.90;96.50;;;;;;5016086;28;20594;-76
2021/05/09 09:14:25;;;;;;;3.20;1.03;;;22.00;96.00;;;;;;5014668;28;20467;-77
2021/05/09 09:17:09;;;;;;;1.97;0.90;;;22.00;96.60;;;;;;5012521;28;20459;-75
2021/05/09 09:19:57;;;;;;;0.80;0.80;;;22.10;95.80;;;;;;5021821;28;20530;-77
2021/05/09 09:22:24;;;;;;;0.80;0.80;;;22.10;96.60;;;;;;5024181;28;21342;-75
2021/05/09 09:25:03;;;;;;;0.80;0.80;;;22.20;97.10;;;;;;5021212;28;20460;-76
2021/05/09 09:27:31;;;;;;;0.83;0.83;;;22.30;97.60;;;;;;5014835;28;20451;-75
2021/05/09 09:30:04;;;;;;;0.80;0.77;;;22.30;98.60;;;;;;5016298;28;20471;-74
2021/05/09 09:32:31;;;;;;;1.33;1.00;;;22.30;97.40;;;;;;5021922;28;20459;-76
2021/05/09 09:34:59;;;;;;;1.30;0.90;;;22.40;97.90;;;;;;5017687;28;20581;-76
2021/05/09 09:37:32;;;;;;;5.67;3.70;;;22.40;96.70;;;;;;5020721;28;21222;-75
2021/05/09 09:40:02;;;;;;;16.97;15.20;;;22.50;96.10;;;;;;5020502;28;20484;-76
2021/05/09 09:42:37;;;;;;;3.73;3.43;;;22.50;96.30;;;;;;5007074;28;20464;-74
2021/05/09 09:45:15;;;;;;;1.03;0.97;;;22.60;95.90;;;;;;5023515;28;20562;-74
2021/05/09 09:47:53;;;;;;;0.90;0.90;;;22.60;96.10;;;;;;5023023;28;20536;-75
2021/05/09 09:50:39;;;;;;;1.03;0.80;;;22.60;95.20;;;;;;5015355;28;20553;-77
2021/05/09 09:53:26;;;;;;;1.60;1.03;;;22.60;95.00;;;;;;5009372;28;20449;-77
2021/05/09 09:56:00;;;;;;;0.70;0.70;;;22.80;95.40;;;;;;5014773;28;20475;-77
2021/05/09 09:58:40;;;;;;;6.57;6.03;;;22.80;95.70;;;;;;5013390;28;20505;-77
2021/05/09 10:01:10;;;;;;;1.53;1.43;;;22.90;95.60;;;;;;5017558;28;20475;-75
2021/05/09 10:03:38;;;;;;;1.97;1.60;;;22.90;94.60;;;;;;5023124;28;21060;-75
2021/05/09 10:06:06;;;;;;;1.00;1.00;;;22.90;94.60;;;;;;5022975;28;20460;-75
2021/05/09 10:08:35;;;;;;;1.00;0.83;;;22.90;94.00;;;;;;5020999;28;20448;-75
2021/05/09 10:11:04;;;;;;;0.77;0.77;;;23.00;94.50;;;;;;5023858;28;20864;-74
2021/05/09 10:13:31;;;;;;;0.70;0.70;;;23.00;93.90;;;;;;5022693;28;20463;-77
2021/05/09 10:15:59;;;;;;;0.70;0.70;;;23.00;94.60;;;;;;5023549;28;20475;-77
2021/05/09 10:18:27;;;;;;;1.60;1.00;;;23.20;96.00;;;;;;5022754;28;20448;-76
2021/05/09 10:20:55;;;;;;;1.90;0.90;;;23.20;96.20;;;;;;5021313;28;20554;-76
2021/05/09 10:23:24;;;;;;;2.00;1.50;;;23.20;96.40;;;;;;5021037;28;20453;-76
2021/05/09 10:25:53;;;;;;;0.77;0.77;;;23.30;96.40;;;;;;5015038;28;20542;-75
2021/05/09 10:28:22;;;;;;;2.13;1.90;;;23.30;96.50;;;;;;5013370;28;20448;-76
2021/05/09 10:30:51;;;;;;;1.37;1.00;;;23.40;98.20;;;;;;5019166;28;20478;-75
2021/05/09 10:33:41;;;;;;;1.03;0.93;;;23.50;97.00;;;;;;5013511;28;20441;-74
2021/05/09 10:36:11;;;;;;;4.17;2.90;;;23.50;96.30;;;;;;5020546;28;21250;-78
2021/05/09 10:39:13;;;;;;;4.50;3.73;;;23.50;97.40;;;;;;5019328;28;20449;-76
2021/05/09 10:42:18;;;;;;;0.80;0.70;;;23.70;96.60;;;;;;5021645;28;20522;-75
2021/05/09 10:44:52;;;;;;;2.43;2.23;;;23.60;96.00;;;;;;4980243;28;20470;-74
2021/05/09 10:47:31;;;;;;;1.03;1.00;;;23.70;96.90;;;;;;4979277;28;20462;-74
2021/05/09 10:50:24;;;;;;;1.00;0.90;;;23.70;97.10;;;;;;5000631;28;20475;-76
2021/05/09 10:52:52;;;;;;;1.50;1.30;;;23.70;96.90;;;;;;5021438;28;20492;-77
2021/05/09 10:55:40;;;;;;;0.80;0.80;;;23.50;97.00;;;;;;5017906;28;20468;-76
2021/05/09 10:58:09;;;;;;;1.00;0.90;;;23.70;96.20;;;;;;5015523;28;20506;-77
2021/05/09 11:01:14;;;;;;;2.83;2.63;;;23.80;97.50;;;;;;5006909;28;20493;-75
2021/05/09 11:03:53;;;;;;;1.60;1.50;;;24.00;98.20;;;;;;5012409;28;20453;-75
2021/05/09 11:06:37;;;;;;;3.50;3.20;;;23.90;97.10;;;;;;5021445;28;20510;-74
2021/05/09 11:09:06;;;;;;;1.53;0.87;;;23.90;96.60;;;;;;5010796;28;20464;-74
2021/05/09 11:12:03;;;;;;;1.73;1.10;;;24.00;97.60;;;;;;5012873;28;20476;-77
2021/05/09 11:14:35;;;;;;;1.40;0.90;;;24.00;97.10;;;;;;5011239;28;20468;-75
2021/05/09 11:17:17;;;;;;;1.20;1.10;;;24.20;98.10;;;;;;5015286;28;21172;-76
2021/05/09 11:19:51;;;;;;;9.73;8.83;;;24.10;97.10;;;;;;5017326;28;20485;-74
2021/05/09 11:22:23;;;;;;;1.20;1.10;;;24.20;97.80;;;;;;5009193;28;21032;-76
2021/05/09 11:24:59;;;;;;;1.87;0.90;;;24.20;98.60;;;;;;5019163;28;21281;-74
2021/05/09 11:27:28;;;;;;;1.30;1.03;;;24.30;97.80;;;;;;5017730;28;20526;-76
2021/05/09 11:29:57;;;;;;;1.13;1.00;;;24.30;98.60;;;;;;5017993;28;20453;-74
2021/05/09 11:32:27;;;;;;;1.73;1.40;;;24.30;98.70;;;;;;5012364;28;20976;-75
2021/05/09 11:35:04;;;;;;;2.00;1.40;;;24.50;99.20;;;;;;5009802;28;21130;-74
2021/05/09 11:37:40;;;;;;;1.93;0.97;;;24.40;98.30;;;;;;5017542;28;20452;-76
2021/05/09 11:40:14;;;;;;;1.47;1.10;;;24.50;98.00;;;;;;5014937;28;20479;-73
2021/05/09 11:42:42;;;;;;;1.10;1.10;;;24.50;98.90;;;;;;5020233;28;20459;-74
2021/05/09 11:45:09;;;;;;;1.83;0.70;;;24.50;98.50;;;;;;5019593;28;20998;-78
2021/05/09 11:47:48;;;;;;;1.10;1.00;;;24.60;98.40;;;;;;5020256;28;20457;-75
2021/05/09 11:50:18;;;;;;;4.03;1.17;;;24.70;99.00;;;;;;5018006;28;20464;-75
2021/05/09 11:52:46;;;;;;;3.00;2.70;;;24.70;99.00;;;;;;5013589;28;20456;-74
2021/05/09 11:55:15;;;;;;;4.47;1.03;;;24.80;99.90;;;;;;5035163;28;20455;-77
2021/05/09 11:57:46;;;;;;;13.30;10.83;;;24.80;97.30;;;;;;5021813;28;20449;-75
2021/05/09 12:00:16;;;;;;;1.70;1.60;;;24.80;97.40;;;;;;5017950;28;21066;-76
2021/05/09 12:02:44;;;;;;;1.40;1.30;;;24.80;97.10;;;;;;5011416;28;20456;-77
2021/05/09 12:05:14;;;;;;;2.33;1.80;;;24.80;96.00;;;;;;5017356;28;20938;-73
2021/05/09 12:07:49;;;;;;;0.60;0.60;;;24.80;96.30;;;;;;5017281;28;21151;-75
2021/05/09 12:10:17;;;;;;;1.50;0.90;;;24.90;96.20;;;;;;5009444;28;20552;-75
2021/05/09 12:13:15;;;;;;;0.80;0.80;;;24.90;97.10;;;;;;5012976;28;20518;-75
2021/05/09 12:15:51;;;;;;;3.43;2.50;;;25.00;96.90;;;;;;5023100;28;20447;-75
2021/05/09 12:18:27;;;;;;;3.60;3.30;;;24.90;98.60;;;;;;5004555;28;20977;-73
2021/05/09 12:21:06;;;;;;;1.00;1.00;;;25.00;97.90;;;;;;5012834;28;21448;-76
2021/05/09 12:23:34;;;;;;;1.43;1.33;;;25.10;97.90;;;;;;5018349;28;20456;-75
2021/05/09 12:26:09;;;;;;;3.33;2.40;;;25.10;97.60;;;;;;5014520;28;20445;-76
2021/05/09 12:28:37;;;;;;;2.80;1.37;;;25.10;97.60;;;;;;5002359;28;20456;-75
2021/05/09 12:31:09;;;;;;;0.90;0.90;;;25.20;98.10;;;;;;5010833;28;20543;-76
2021/05/09 12:33:36;;;;;;;1.33;0.70;;;25.20;97.40;;;;;;5017903;28;20470;-76
2021/05/09 12:36:11;;;;;;;1.13;0.80;;;25.20;97.80;;;;;;5012270;28;20506;-75
2021/05/09 12:38:38;;;;;;;1.30;1.00;;;25.20;99.90;;;;;;5015824;28;20521;-75
2021/05/09 12:41:06;;;;;;;1.40;0.70;;;25.20;98.40;;;;;;5011107;28;20485;-76
2021/05/09 12:43:42;;;;;;;1.73;0.80;;;25.30;97.40;;;;;;5001968;28;21129;-75
2021/05/09 12:46:09;;;;;;;1.10;1.07;;;25.30;97.40;;;;;;5020514;28;20496;-76
2021/05/09 12:48:36;;;;;;;2.43;1.70;;;25.30;97.00;;;;;;5025477;28;20458;-74
2021/05/09 12:51:05;;;;;;;1.43;1.00;;;25.30;96.90;;;;;;5017977;28;20472;-76
2021/05/09 12:53:48;;;;;;;0.90;0.80;;;25.40;98.00;;;;;;5013442;28;20453;-74
2021/05/09 12:56:26;;;;;;;1.27;1.00;;;25.50;97.80;;;;;;5024576;28;20451;-74
2021/05/09 12:59:06;;;;;;;0.70;0.70;;;25.50;97.00;;;;;;5023650;28;20460;-77